sensor_id;sensor_type;location;lat;lon;timestamp;P1;durP1;ratioP1;P2;durP2;ratioP2
59442;SDS011;45247;47.466;19.004;2022-09-09T00:02:01;3.22;;;1.92;;
59442;SDS011;45247;47.466;19.004;2022-09-09T00:04:32;2.65;;;1.80;;
59442;SDS011;45247;47.466;19.004;2022-09-09T00:07:03;6.13;;;1.70;;
59442;SDS011;45247;47.466;19.004;2022-09-09T00:09:39;9.25;;;1.80;;
59442;SDS011;45247;47.466;19.004;2022-09-09T00:12:16;1.98;;;1.48;;
59442;SDS011;45247;47.466;19.004;2022-09-09T00:14:53;2.22;;;1.70;;
59442;SDS011;45247;47.466;19.004;2022-09-09T00:17:30;6.22;;;1.90;;
59442;SDS011;45247;47.466;19.004;2022-09-09T00:20:04;4.30;;;2.13;;
59442;SDS011;45247;47.466;19.004;2022-09-09T00:22:41;3.00;;;2.40;;
59442;SDS011;45247;47.466;19.004;2022-09-09T00:25:15;3.03;;;2.00;;
59442;SDS011;45247;47.466;19.004;2022-09-09T00:27:51;3.28;;;1.73;;
59442;SDS011;45247;47.466;19.004;2022-09-09T00:30:19;4.57;;;2.13;;
59442;SDS011;45247;47.466;19.004;2022-09-09T00:32:53;3.35;;;1.75;;
59442;SDS011;45247;47.466;19.004;2022-09-09T00:35:25;3.08;;;1.90;;
59442;SDS011;45247;47.466;19.004;2022-09-09T00:37:57;2.83;;;1.80;;
59442;SDS011;45247;47.466;19.004;2022-09-09T00:40:33;3.13;;;1.63;;
59442;SDS011;45247;47.466;19.004;2022-09-09T00:43:07;2.55;;;1.67;;
59442;SDS011;45247;47.466;19.004;2022-09-09T00:45:54;2.65;;;1.90;;
59442;SDS011;45247;47.466;19.004;2022-09-09T00:48:41;3.47;;;2.40;;
59442;SDS011;45247;47.466;19.004;2022-09-09T00:51:21;2.33;;;1.67;;
59442;SDS011;45247;47.466;19.004;2022-09-09T00:54:06;2.33;;;1.92;;
59442;SDS011;45247;47.466;19.004;2022-09-09T00:56:45;2.80;;;2.03;;
59442;SDS011;45247;47.466;19.004;2022-09-09T00:59:24;4.45;;;1.98;;
59442;SDS011;45247;47.466;19.004;2022-09-09T01:01:59;4.57;;;1.90;;
59442;SDS011;45247;47.466;19.004;2022-09-09T01:04:32;6.60;;;1.77;;
59442;SDS011;45247;47.466;19.004;2022-09-09T01:07:07;6.45;;;2.47;;
59442;SDS011;45247;47.466;19.004;2022-09-09T01:12:37;4.88;;;1.70;;
59442;SDS011;45247;47.466;19.004;2022-09-09T01:15:10;2.88;;;1.88;;
59442;SDS011;45247;47.466;19.004;2022-09-09T01:17:46;7.25;;;2.50;;
59442;SDS011;45247;47.466;19.004;2022-09-09T01:20:24;2.70;;;2.00;;
59442;SDS011;45247;47.466;19.004;2022-09-09T01:23:02;2.75;;;1.90;;
59442;SDS011;45247;47.466;19.004;2022-09-09T01:28:37;6.18;;;2.50;;
59442;SDS011;45247;47.466;19.004;2022-09-09T01:31:06;3.65;;;2.45;;
59442;SDS011;45247;47.466;19.004;2022-09-09T01:33:39;3.85;;;2.75;;
59442;SDS011;45247;47.466;19.004;2022-09-09T01:36:08;3.22;;;2.30;;
59442;SDS011;45247;47.466;19.004;2022-09-09T01:38:39;5.60;;;2.72;;
59442;SDS011;45247;47.466;19.004;2022-09-09T01:41:09;6.22;;;2.35;;
59442;SDS011;45247;47.466;19.004;2022-09-09T01:43:37;4.60;;;2.25;;
59442;SDS011;45247;47.466;19.004;2022-09-09T01:46:05;4.70;;;2.50;;
59442;SDS011;45247;47.466;19.004;2022-09-09T01:48:34;4.40;;;2.60;;
59442;SDS011;45247;47.466;19.004;2022-09-09T01:51:02;3.40;;;2.53;;
59442;SDS011;45247;47.466;19.004;2022-09-09T01:53:30;6.22;;;2.80;;
59442;SDS011;45247;47.466;19.004;2022-09-09T01:56:01;5.55;;;2.65;;
59442;SDS011;45247;47.466;19.004;2022-09-09T01:58:41;5.43;;;2.60;;
59442;SDS011;45247;47.466;19.004;2022-09-09T02:01:22;2.72;;;2.10;;
59442;SDS011;45247;47.466;19.004;2022-09-09T02:04:00;3.58;;;2.35;;
59442;SDS011;45247;47.466;19.004;2022-09-09T02:06:36;3.13;;;2.20;;
59442;SDS011;45247;47.466;19.004;2022-09-09T02:09:07;2.90;;;2.08;;
59442;SDS011;45247;47.466;19.004;2022-09-09T02:11:39;4.88;;;2.30;;
59442;SDS011;45247;47.466;19.004;2022-09-09T02:14:12;3.53;;;2.10;;
59442;SDS011;45247;47.466;19.004;2022-09-09T02:16:47;3.55;;;2.17;;
59442;SDS011;45247;47.466;19.004;2022-09-09T02:19:19;7.57;;;2.67;;
59442;SDS011;45247;47.466;19.004;2022-09-09T02:21:53;2.80;;;2.47;;
59442;SDS011;45247;47.466;19.004;2022-09-09T02:24:24;5.28;;;2.08;;
59442;SDS011;45247;47.466;19.004;2022-09-09T02:26:54;3.20;;;2.45;;
59442;SDS011;45247;47.466;19.004;2022-09-09T02:29:27;3.35;;;2.40;;
59442;SDS011;45247;47.466;19.004;2022-09-09T02:31:59;3.30;;;2.72;;
59442;SDS011;45247;47.466;19.004;2022-09-09T02:34:30;3.60;;;2.67;;
59442;SDS011;45247;47.466;19.004;2022-09-09T02:37:02;7.30;;;2.22;;
59442;SDS011;45247;47.466;19.004;2022-09-09T02:39:32;5.68;;;2.35;;
59442;SDS011;45247;47.466;19.004;2022-09-09T02:42:00;2.78;;;2.13;;
59442;SDS011;45247;47.466;19.004;2022-09-09T02:44:31;5.32;;;2.10;;
59442;SDS011;45247;47.466;19.004;2022-09-09T02:47:07;4.97;;;1.80;;
59442;SDS011;45247;47.466;19.004;2022-09-09T02:49:47;2.80;;;2.20;;
59442;SDS011;45247;47.466;19.004;2022-09-09T02:52:26;3.03;;;1.83;;
59442;SDS011;45247;47.466;19.004;2022-09-09T02:55:02;4.57;;;2.50;;
59442;SDS011;45247;47.466;19.004;2022-09-09T02:57:34;3.40;;;2.05;;
59442;SDS011;45247;47.466;19.004;2022-09-09T03:00:06;3.97;;;2.30;;
59442;SDS011;45247;47.466;19.004;2022-09-09T03:02:35;4.75;;;2.50;;
59442;SDS011;45247;47.466;19.004;2022-09-09T03:05:04;4.10;;;3.05;;
59442;SDS011;45247;47.466;19.004;2022-09-09T03:07:33;5.40;;;2.85;;
59442;SDS011;45247;47.466;19.004;2022-09-09T03:10:01;3.70;;;2.65;;
59442;SDS011;45247;47.466;19.004;2022-09-09T03:12:30;7.97;;;3.85;;
59442;SDS011;45247;47.466;19.004;2022-09-09T03:15:00;3.78;;;3.20;;
59442;SDS011;45247;47.466;19.004;2022-09-09T03:17:29;6.13;;;3.22;;
59442;SDS011;45247;47.466;19.004;2022-09-09T03:19:57;4.43;;;2.90;;
59442;SDS011;45247;47.466;19.004;2022-09-09T03:22:26;5.88;;;3.10;;
59442;SDS011;45247;47.466;19.004;2022-09-09T03:24:54;3.80;;;2.78;;
59442;SDS011;45247;47.466;19.004;2022-09-09T03:27:22;5.20;;;2.80;;
59442;SDS011;45247;47.466;19.004;2022-09-09T03:29:50;7.22;;;3.47;;
59442;SDS011;45247;47.466;19.004;2022-09-09T03:32:18;4.10;;;2.50;;
59442;SDS011;45247;47.466;19.004;2022-09-09T03:34:50;5.18;;;3.63;;
59442;SDS011;45247;47.466;19.004;2022-09-09T03:37:18;4.97;;;2.80;;
59442;SDS011;45247;47.466;19.004;2022-09-09T03:39:47;4.60;;;3.47;;
59442;SDS011;45247;47.466;19.004;2022-09-09T03:42:15;6.28;;;4.00;;
59442;SDS011;45247;47.466;19.004;2022-09-09T03:44:45;4.28;;;3.55;;
59442;SDS011;45247;47.466;19.004;2022-09-09T03:47:16;7.07;;;3.38;;
59442;SDS011;45247;47.466;19.004;2022-09-09T03:49:45;3.92;;;2.90;;
59442;SDS011;45247;47.466;19.004;2022-09-09T03:52:16;6.57;;;3.50;;
59442;SDS011;45247;47.466;19.004;2022-09-09T03:54:49;6.82;;;3.30;;
59442;SDS011;45247;47.466;19.004;2022-09-09T03:57:17;7.93;;;3.35;;
59442;SDS011;45247;47.466;19.004;2022-09-09T03:59:45;5.55;;;3.10;;
59442;SDS011;45247;47.466;19.004;2022-09-09T04:02:13;5.70;;;3.55;;
59442;SDS011;45247;47.466;19.004;2022-09-09T04:04:42;3.45;;;2.60;;
59442;SDS011;45247;47.466;19.004;2022-09-09T04:07:10;5.55;;;3.00;;
59442;SDS011;45247;47.466;19.004;2022-09-09T04:09:40;2.83;;;2.50;;
59442;SDS011;45247;47.466;19.004;2022-09-09T04:12:08;3.92;;;2.28;;
59442;SDS011;45247;47.466;19.004;2022-09-09T04:14:39;3.13;;;2.40;;
59442;SDS011;45247;47.466;19.004;2022-09-09T04:17:07;2.70;;;2.28;;
59442;SDS011;45247;47.466;19.004;2022-09-09T04:19:36;5.55;;;3.40;;
59442;SDS011;45247;47.466;19.004;2022-09-09T04:22:04;5.05;;;2.53;;
59442;SDS011;45247;47.466;19.004;2022-09-09T04:24:32;3.72;;;2.40;;
59442;SDS011;45247;47.466;19.004;2022-09-09T04:27:03;5.93;;;2.70;;
59442;SDS011;45247;47.466;19.004;2022-09-09T04:29:31;3.85;;;2.90;;
59442;SDS011;45247;47.466;19.004;2022-09-09T04:31:59;4.72;;;3.05;;
59442;SDS011;45247;47.466;19.004;2022-09-09T04:34:28;3.53;;;2.70;;
59442;SDS011;45247;47.466;19.004;2022-09-09T04:36:57;3.13;;;2.42;;
59442;SDS011;45247;47.466;19.004;2022-09-09T04:39:26;4.65;;;2.80;;
59442;SDS011;45247;47.466;19.004;2022-09-09T04:41:55;16.42;;;3.58;;
59442;SDS011;45247;47.466;19.004;2022-09-09T04:44:25;12.85;;;4.65;;
59442;SDS011;45247;47.466;19.004;2022-09-09T04:46:54;9.70;;;4.05;;
59442;SDS011;45247;47.466;19.004;2022-09-09T04:49:22;8.50;;;4.40;;
59442;SDS011;45247;47.466;19.004;2022-09-09T04:51:50;11.68;;;3.80;;
59442;SDS011;45247;47.466;19.004;2022-09-09T04:54:19;8.23;;;3.95;;
59442;SDS011;45247;47.466;19.004;2022-09-09T04:56:47;11.85;;;4.45;;
59442;SDS011;45247;47.466;19.004;2022-09-09T04:59:18;6.50;;;3.75;;
59442;SDS011;45247;47.466;19.004;2022-09-09T05:01:47;7.38;;;3.70;;
59442;SDS011;45247;47.466;19.004;2022-09-09T05:04:16;10.40;;;3.72;;
59442;SDS011;45247;47.466;19.004;2022-09-09T05:06:45;8.20;;;3.95;;
59442;SDS011;45247;47.466;19.004;2022-09-09T05:09:14;5.03;;;3.20;;
59442;SDS011;45247;47.466;19.004;2022-09-09T05:11:42;12.55;;;4.22;;
59442;SDS011;45247;47.466;19.004;2022-09-09T05:14:11;5.82;;;3.33;;
59442;SDS011;45247;47.466;19.004;2022-09-09T05:16:39;7.05;;;3.95;;
59442;SDS011;45247;47.466;19.004;2022-09-09T05:19:08;6.15;;;3.42;;
59442;SDS011;45247;47.466;19.004;2022-09-09T05:21:36;5.60;;;3.95;;
59442;SDS011;45247;47.466;19.004;2022-09-09T05:24:05;10.93;;;3.92;;
59442;SDS011;45247;47.466;19.004;2022-09-09T05:26:33;9.93;;;4.40;;
59442;SDS011;45247;47.466;19.004;2022-09-09T05:29:01;9.32;;;4.55;;
59442;SDS011;45247;47.466;19.004;2022-09-09T05:31:30;6.45;;;4.15;;
59442;SDS011;45247;47.466;19.004;2022-09-09T05:33:59;8.82;;;5.55;;
59442;SDS011;45247;47.466;19.004;2022-09-09T05:36:29;5.25;;;4.20;;
59442;SDS011;45247;47.466;19.004;2022-09-09T05:38:57;6.78;;;4.20;;
59442;SDS011;45247;47.466;19.004;2022-09-09T05:41:25;12.50;;;3.85;;
59442;SDS011;45247;47.466;19.004;2022-09-09T05:43:55;8.85;;;3.90;;
59442;SDS011;45247;47.466;19.004;2022-09-09T05:46:25;10.88;;;5.05;;
59442;SDS011;45247;47.466;19.004;2022-09-09T05:48:53;37.20;;;6.32;;
59442;SDS011;45247;47.466;19.004;2022-09-09T05:51:22;13.32;;;4.45;;
59442;SDS011;45247;47.466;19.004;2022-09-09T05:53:54;27.30;;;5.80;;
59442;SDS011;45247;47.466;19.004;2022-09-09T05:56:25;25.92;;;6.30;;
59442;SDS011;45247;47.466;19.004;2022-09-09T05:58:54;8.73;;;5.13;;
59442;SDS011;45247;47.466;19.004;2022-09-09T06:01:24;14.55;;;4.55;;
59442;SDS011;45247;47.466;19.004;2022-09-09T06:03:53;6.25;;;3.80;;
59442;SDS011;45247;47.466;19.004;2022-09-09T06:06:24;14.98;;;4.63;;
59442;SDS011;45247;47.466;19.004;2022-09-09T06:08:55;18.30;;;5.07;;
59442;SDS011;45247;47.466;19.004;2022-09-09T06:11:25;18.83;;;5.82;;
59442;SDS011;45247;47.466;19.004;2022-09-09T06:13:54;10.35;;;4.13;;
59442;SDS011;45247;47.466;19.004;2022-09-09T06:16:23;11.27;;;3.65;;
59442;SDS011;45247;47.466;19.004;2022-09-09T06:18:55;8.02;;;3.78;;
59442;SDS011;45247;47.466;19.004;2022-09-09T06:21:24;11.55;;;3.70;;
59442;SDS011;45247;47.466;19.004;2022-09-09T06:23:54;10.50;;;3.95;;
59442;SDS011;45247;47.466;19.004;2022-09-09T06:26:27;11.32;;;4.18;;
59442;SDS011;45247;47.466;19.004;2022-09-09T06:28:57;11.80;;;3.67;;
59442;SDS011;45247;47.466;19.004;2022-09-09T06:31:27;11.05;;;3.85;;
59442;SDS011;45247;47.466;19.004;2022-09-09T06:33:57;5.15;;;3.42;;
59442;SDS011;45247;47.466;19.004;2022-09-09T06:36:27;14.05;;;3.60;;
59442;SDS011;45247;47.466;19.004;2022-09-09T06:38:58;5.63;;;3.20;;
59442;SDS011;45247;47.466;19.004;2022-09-09T06:41:27;6.95;;;2.97;;
59442;SDS011;45247;47.466;19.004;2022-09-09T06:43:56;4.18;;;2.75;;
59442;SDS011;45247;47.466;19.004;2022-09-09T06:46:25;3.80;;;2.70;;
59442;SDS011;45247;47.466;19.004;2022-09-09T06:48:56;16.92;;;4.13;;
59442;SDS011;45247;47.466;19.004;2022-09-09T06:51:25;10.57;;;3.25;;
59442;SDS011;45247;47.466;19.004;2022-09-09T06:53:55;5.50;;;3.05;;
59442;SDS011;45247;47.466;19.004;2022-09-09T06:56:26;6.85;;;3.20;;
59442;SDS011;45247;47.466;19.004;2022-09-09T06:59:00;5.03;;;2.97;;
59442;SDS011;45247;47.466;19.004;2022-09-09T07:01:31;10.57;;;3.47;;
59442;SDS011;45247;47.466;19.004;2022-09-09T07:04:00;6.13;;;2.78;;
59442;SDS011;45247;47.466;19.004;2022-09-09T07:06:31;9.25;;;2.88;;
59442;SDS011;45247;47.466;19.004;2022-09-09T07:09:01;21.25;;;4.05;;
59442;SDS011;45247;47.466;19.004;2022-09-09T07:11:33;26.02;;;3.40;;
59442;SDS011;45247;47.466;19.004;2022-09-09T07:14:04;5.47;;;3.05;;
59442;SDS011;45247;47.466;19.004;2022-09-09T07:16:33;14.55;;;3.20;;
59442;SDS011;45247;47.466;19.004;2022-09-09T07:19:03;10.57;;;3.17;;
59442;SDS011;45247;47.466;19.004;2022-09-09T07:21:32;10.50;;;2.95;;
59442;SDS011;45247;47.466;19.004;2022-09-09T07:24:01;6.63;;;2.85;;
59442;SDS011;45247;47.466;19.004;2022-09-09T07:26:35;6.82;;;3.17;;
59442;SDS011;45247;47.466;19.004;2022-09-09T07:29:04;11.15;;;3.00;;
59442;SDS011;45247;47.466;19.004;2022-09-09T07:31:33;16.02;;;4.32;;
59442;SDS011;45247;47.466;19.004;2022-09-09T07:34:03;19.52;;;3.28;;
59442;SDS011;45247;47.466;19.004;2022-09-09T07:36:32;12.50;;;3.05;;
59442;SDS011;45247;47.466;19.004;2022-09-09T07:39:02;17.05;;;3.78;;
59442;SDS011;45247;47.466;19.004;2022-09-09T07:41:33;5.13;;;2.42;;
59442;SDS011;45247;47.466;19.004;2022-09-09T07:44:04;8.65;;;2.47;;
59442;SDS011;45247;47.466;19.004;2022-09-09T07:46:33;8.65;;;2.60;;
59442;SDS011;45247;47.466;19.004;2022-09-09T07:49:02;6.38;;;2.47;;
59442;SDS011;45247;47.466;19.004;2022-09-09T07:51:31;13.15;;;4.35;;
59442;SDS011;45247;47.466;19.004;2022-09-09T07:54:08;5.00;;;2.40;;
59442;SDS011;45247;47.466;19.004;2022-09-09T07:56:39;4.60;;;2.00;;
59442;SDS011;45247;47.466;19.004;2022-09-09T07:59:08;4.65;;;2.30;;
59442;SDS011;45247;47.466;19.004;2022-09-09T08:01:37;7.72;;;2.15;;
59442;SDS011;45247;47.466;19.004;2022-09-09T08:04:08;6.38;;;2.60;;
59442;SDS011;45247;47.466;19.004;2022-09-09T08:06:42;7.88;;;3.20;;
59442;SDS011;45247;47.466;19.004;2022-09-09T08:09:13;17.42;;;2.78;;
59442;SDS011;45247;47.466;19.004;2022-09-09T08:11:43;8.07;;;2.00;;
59442;SDS011;45247;47.466;19.004;2022-09-09T08:14:11;7.80;;;2.45;;
59442;SDS011;45247;47.466;19.004;2022-09-09T08:16:41;6.22;;;2.28;;
59442;SDS011;45247;47.466;19.004;2022-09-09T08:19:10;7.53;;;2.13;;
59442;SDS011;45247;47.466;19.004;2022-09-09T08:21:42;5.90;;;1.88;;
59442;SDS011;45247;47.466;19.004;2022-09-09T08:24:11;4.45;;;2.08;;
59442;SDS011;45247;47.466;19.004;2022-09-09T08:26:41;6.05;;;2.10;;
59442;SDS011;45247;47.466;19.004;2022-09-09T08:29:12;3.90;;;2.05;;
59442;SDS011;45247;47.466;19.004;2022-09-09T08:31:42;3.83;;;2.15;;
59442;SDS011;45247;47.466;19.004;2022-09-09T08:34:12;8.95;;;2.10;;
59442;SDS011;45247;47.466;19.004;2022-09-09T08:36:42;3.17;;;1.92;;
59442;SDS011;45247;47.466;19.004;2022-09-09T08:39:12;7.30;;;2.00;;
59442;SDS011;45247;47.466;19.004;2022-09-09T08:44:48;8.43;;;2.00;;
59442;SDS011;45247;47.466;19.004;2022-09-09T08:47:29;9.18;;;2.08;;
59442;SDS011;45247;47.466;19.004;2022-09-09T08:50:13;6.55;;;2.00;;
59442;SDS011;45247;47.466;19.004;2022-09-09T08:52:50;15.38;;;2.33;;
59442;SDS011;45247;47.466;19.004;2022-09-09T08:55:27;4.22;;;1.90;;
59442;SDS011;45247;47.466;19.004;2022-09-09T08:58:04;5.32;;;2.10;;
59442;SDS011;45247;47.466;19.004;2022-09-09T09:00:40;4.00;;;2.10;;
59442;SDS011;45247;47.466;19.004;2022-09-09T09:03:22;3.55;;;1.92;;
59442;SDS011;45247;47.466;19.004;2022-09-09T09:06:01;6.50;;;2.20;;
59442;SDS011;45247;47.466;19.004;2022-09-09T09:08:36;3.42;;;1.80;;
59442;SDS011;45247;47.466;19.004;2022-09-09T09:11:11;5.10;;;1.77;;
59442;SDS011;45247;47.466;19.004;2022-09-09T09:13:43;3.78;;;1.92;;
59442;SDS011;45247;47.466;19.004;2022-09-09T09:16:18;6.75;;;2.05;;
59442;SDS011;45247;47.466;19.004;2022-09-09T09:18:54;2.88;;;2.03;;
59442;SDS011;45247;47.466;19.004;2022-09-09T09:21:34;3.88;;;1.83;;
59442;SDS011;45247;47.466;19.004;2022-09-09T09:24:07;4.03;;;1.77;;
59442;SDS011;45247;47.466;19.004;2022-09-09T09:26:47;4.28;;;1.98;;
59442;SDS011;45247;47.466;19.004;2022-09-09T09:29:18;6.07;;;1.80;;
59442;SDS011;45247;47.466;19.004;2022-09-09T09:31:48;3.97;;;1.90;;
59442;SDS011;45247;47.466;19.004;2022-09-09T09:34:21;4.90;;;1.73;;
59442;SDS011;45247;47.466;19.004;2022-09-09T09:36:52;4.30;;;1.85;;
59442;SDS011;45247;47.466;19.004;2022-09-09T09:39:23;6.07;;;2.00;;
59442;SDS011;45247;47.466;19.004;2022-09-09T09:42:13;4.05;;;1.85;;
59442;SDS011;45247;47.466;19.004;2022-09-09T09:44:50;2.17;;;1.50;;
59442;SDS011;45247;47.466;19.004;2022-09-09T09:47:19;4.35;;;1.40;;
59442;SDS011;45247;47.466;19.004;2022-09-09T09:49:53;9.80;;;1.55;;
59442;SDS011;45247;47.466;19.004;2022-09-09T09:54:51;5.63;;;1.67;;
59442;SDS011;45247;47.466;19.004;2022-09-09T09:57:24;2.30;;;1.50;;
59442;SDS011;45247;47.466;19.004;2022-09-09T10:00:05;3.67;;;1.30;;
59442;SDS011;45247;47.466;19.004;2022-09-09T10:02:42;2.30;;;1.05;;
59442;SDS011;45247;47.466;19.004;2022-09-09T10:05:13;5.95;;;1.10;;
59442;SDS011;45247;47.466;19.004;2022-09-09T10:07:46;1.75;;;0.93;;
59442;SDS011;45247;47.466;19.004;2022-09-09T10:10:31;3.47;;;1.15;;
59442;SDS011;45247;47.466;19.004;2022-09-09T10:13:15;3.47;;;0.90;;
59442;SDS011;45247;47.466;19.004;2022-09-09T10:15:56;14.05;;;4.82;;
59442;SDS011;45247;47.466;19.004;2022-09-09T10:18:37;2.03;;;1.10;;
59442;SDS011;45247;47.466;19.004;2022-09-09T10:21:17;1.63;;;1.00;;
59442;SDS011;45247;47.466;19.004;2022-09-09T10:24:05;3.10;;;1.23;;
59442;SDS011;45247;47.466;19.004;2022-09-09T10:26:46;3.55;;;0.90;;
59442;SDS011;45247;47.466;19.004;2022-09-09T10:29:28;2.00;;;1.15;;
59442;SDS011;45247;47.466;19.004;2022-09-09T10:32:10;3.17;;;1.15;;
59442;SDS011;45247;47.466;19.004;2022-09-09T10:34:56;3.55;;;1.10;;
59442;SDS011;45247;47.466;19.004;2022-09-09T10:37:38;1.38;;;0.80;;
59442;SDS011;45247;47.466;19.004;2022-09-09T10:40:19;1.05;;;0.90;;
59442;SDS011;45247;47.466;19.004;2022-09-09T10:42:59;1.55;;;1.08;;
59442;SDS011;45247;47.466;19.004;2022-09-09T10:45:39;2.28;;;0.90;;
59442;SDS011;45247;47.466;19.004;2022-09-09T10:48:25;2.47;;;0.98;;
59442;SDS011;45247;47.466;19.004;2022-09-09T10:53:47;1.45;;;0.90;;
59442;SDS011;45247;47.466;19.004;2022-09-09T10:56:21;0.80;;;0.70;;
59442;SDS011;45247;47.466;19.004;2022-09-09T10:58:52;1.45;;;1.05;;
59442;SDS011;45247;47.466;19.004;2022-09-09T11:01:25;1.48;;;0.90;;
59442;SDS011;45247;47.466;19.004;2022-09-09T11:03:59;1.80;;;0.88;;
59442;SDS011;45247;47.466;19.004;2022-09-09T11:06:35;0.82;;;0.80;;
59442;SDS011;45247;47.466;19.004;2022-09-09T11:09:08;2.72;;;0.82;;
59442;SDS011;45247;47.466;19.004;2022-09-09T11:11:44;1.60;;;0.82;;
59442;SDS011;45247;47.466;19.004;2022-09-09T11:14:19;1.67;;;0.82;;
59442;SDS011;45247;47.466;19.004;2022-09-09T11:16:58;0.88;;;0.75;;
59442;SDS011;45247;47.466;19.004;2022-09-09T11:19:33;3.53;;;1.30;;
59442;SDS011;45247;47.466;19.004;2022-09-09T11:22:04;2.63;;;1.27;;
59442;SDS011;45247;47.466;19.004;2022-09-09T11:24:41;1.48;;;1.00;;
59442;SDS011;45247;47.466;19.004;2022-09-09T11:27:15;2.33;;;1.33;;
59442;SDS011;45247;47.466;19.004;2022-09-09T11:29:55;7.78;;;1.60;;
59442;SDS011;45247;47.466;19.004;2022-09-09T11:32:47;1.85;;;1.00;;
59442;SDS011;45247;47.466;19.004;2022-09-09T11:35:40;2.35;;;1.00;;
59442;SDS011;45247;47.466;19.004;2022-09-09T11:38:21;1.83;;;1.08;;
59442;SDS011;45247;47.466;19.004;2022-09-09T11:40:55;1.35;;;0.88;;
59442;SDS011;45247;47.466;19.004;2022-09-09T11:43:27;1.67;;;1.10;;
59442;SDS011;45247;47.466;19.004;2022-09-09T11:45:59;1.10;;;1.00;;
59442;SDS011;45247;47.466;19.004;2022-09-09T11:48:33;8.23;;;1.38;;
59442;SDS011;45247;47.466;19.004;2022-09-09T11:51:06;1.92;;;1.20;;
59442;SDS011;45247;47.466;19.004;2022-09-09T11:53:48;1.73;;;1.35;;
59442;SDS011;45247;47.466;19.004;2022-09-09T11:56:25;2.78;;;1.50;;
59442;SDS011;45247;47.466;19.004;2022-09-09T11:58:57;2.53;;;1.10;;
59442;SDS011;45247;47.466;19.004;2022-09-09T12:04:13;3.92;;;1.20;;
59442;SDS011;45247;47.466;19.004;2022-09-09T12:06:50;1.37;;;1.10;;
59442;SDS011;45247;47.466;19.004;2022-09-09T12:09:22;3.38;;;1.20;;
59442;SDS011;45247;47.466;19.004;2022-09-09T12:12:21;3.45;;;1.50;;
59442;SDS011;45247;47.466;19.004;2022-09-09T12:14:55;3.47;;;1.50;;
59442;SDS011;45247;47.466;19.004;2022-09-09T12:17:30;3.50;;;1.30;;
59442;SDS011;45247;47.466;19.004;2022-09-09T12:20:00;5.15;;;1.27;;
59442;SDS011;45247;47.466;19.004;2022-09-09T12:22:37;5.47;;;1.55;;
59442;SDS011;45247;47.466;19.004;2022-09-09T12:25:29;1.75;;;1.10;;
59442;SDS011;45247;47.466;19.004;2022-09-09T12:28:09;2.60;;;1.50;;
59442;SDS011;45247;47.466;19.004;2022-09-09T12:30:49;6.18;;;1.35;;
59442;SDS011;45247;47.466;19.004;2022-09-09T12:33:24;11.45;;;1.60;;
59442;SDS011;45247;47.466;19.004;2022-09-09T12:35:54;1.95;;;1.45;;
59442;SDS011;45247;47.466;19.004;2022-09-09T12:38:30;4.70;;;1.50;;
59442;SDS011;45247;47.466;19.004;2022-09-09T12:41:02;5.70;;;1.45;;
59442;SDS011;45247;47.466;19.004;2022-09-09T12:43:31;4.68;;;1.42;;
59442;SDS011;45247;47.466;19.004;2022-09-09T12:46:00;1.98;;;1.00;;
59442;SDS011;45247;47.466;19.004;2022-09-09T12:48:35;4.30;;;1.23;;
59442;SDS011;45247;47.466;19.004;2022-09-09T12:51:07;4.15;;;1.42;;
59442;SDS011;45247;47.466;19.004;2022-09-09T12:53:47;3.58;;;1.80;;
59442;SDS011;45247;47.466;19.004;2022-09-09T12:56:20;2.90;;;1.33;;
59442;SDS011;45247;47.466;19.004;2022-09-09T12:58:50;3.92;;;1.70;;
59442;SDS011;45247;47.466;19.004;2022-09-09T13:01:20;3.67;;;1.60;;
59442;SDS011;45247;47.466;19.004;2022-09-09T13:03:50;3.67;;;1.70;;
59442;SDS011;45247;47.466;19.004;2022-09-09T13:06:20;6.00;;;1.48;;
59442;SDS011;45247;47.466;19.004;2022-09-09T13:08:56;7.07;;;1.42;;
59442;SDS011;45247;47.466;19.004;2022-09-09T13:11:27;2.20;;;1.40;;
59442;SDS011;45247;47.466;19.004;2022-09-09T13:13:59;2.75;;;1.30;;
59442;SDS011;45247;47.466;19.004;2022-09-09T13:16:30;2.92;;;1.30;;
59442;SDS011;45247;47.466;19.004;2022-09-09T13:19:08;2.00;;;1.10;;
59442;SDS011;45247;47.466;19.004;2022-09-09T13:21:41;3.13;;;1.50;;
59442;SDS011;45247;47.466;19.004;2022-09-09T13:24:23;2.03;;;1.13;;
59442;SDS011;45247;47.466;19.004;2022-09-09T13:26:56;4.30;;;1.15;;
59442;SDS011;45247;47.466;19.004;2022-09-09T13:29:26;5.80;;;1.33;;
59442;SDS011;45247;47.466;19.004;2022-09-09T13:32:03;1.90;;;1.23;;
59442;SDS011;45247;47.466;19.004;2022-09-09T13:34:35;2.88;;;1.40;;
59442;SDS011;45247;47.466;19.004;2022-09-09T13:37:04;3.37;;;1.40;;
59442;SDS011;45247;47.466;19.004;2022-09-09T13:39:35;3.85;;;1.15;;
59442;SDS011;45247;47.466;19.004;2022-09-09T13:42:05;2.67;;;1.10;;
59442;SDS011;45247;47.466;19.004;2022-09-09T13:44:35;7.97;;;1.30;;
59442;SDS011;45247;47.466;19.004;2022-09-09T13:47:17;3.45;;;1.00;;
59442;SDS011;45247;47.466;19.004;2022-09-09T13:49:46;1.83;;;1.15;;
59442;SDS011;45247;47.466;19.004;2022-09-09T13:52:18;2.20;;;1.30;;
59442;SDS011;45247;47.466;19.004;2022-09-09T13:54:49;2.38;;;1.20;;
59442;SDS011;45247;47.466;19.004;2022-09-09T13:57:20;2.22;;;1.20;;
59442;SDS011;45247;47.466;19.004;2022-09-09T13:59:52;3.27;;;1.00;;
59442;SDS011;45247;47.466;19.004;2022-09-09T14:02:36;4.28;;;1.30;;
59442;SDS011;45247;47.466;19.004;2022-09-09T14:05:05;3.08;;;1.05;;
59442;SDS011;45247;47.466;19.004;2022-09-09T14:07:35;2.92;;;1.17;;
59442;SDS011;45247;47.466;19.004;2022-09-09T14:10:06;3.45;;;1.50;;
59442;SDS011;45247;47.466;19.004;2022-09-09T14:12:34;1.95;;;1.38;;
59442;SDS011;45247;47.466;19.004;2022-09-09T14:15:03;2.47;;;1.13;;
59442;SDS011;45247;47.466;19.004;2022-09-09T14:17:32;5.20;;;1.50;;
59442;SDS011;45247;47.466;19.004;2022-09-09T14:20:02;3.08;;;1.48;;
59442;SDS011;45247;47.466;19.004;2022-09-09T14:22:34;5.22;;;1.70;;
59442;SDS011;45247;47.466;19.004;2022-09-09T14:25:03;7.45;;;1.80;;
59442;SDS011;45247;47.466;19.004;2022-09-09T14:27:34;2.47;;;1.17;;
59442;SDS011;45247;47.466;19.004;2022-09-09T14:30:03;6.43;;;1.85;;
59442;SDS011;45247;47.466;19.004;2022-09-09T14:32:32;2.22;;;1.20;;
59442;SDS011;45247;47.466;19.004;2022-09-09T14:35:00;2.10;;;1.30;;
59442;SDS011;45247;47.466;19.004;2022-09-09T14:37:28;3.13;;;1.45;;
59442;SDS011;45247;47.466;19.004;2022-09-09T14:39:57;2.45;;;1.20;;
59442;SDS011;45247;47.466;19.004;2022-09-09T14:42:25;3.88;;;1.70;;
59442;SDS011;45247;47.466;19.004;2022-09-09T14:44:57;9.25;;;1.90;;
59442;SDS011;45247;47.466;19.004;2022-09-09T14:47:25;4.82;;;1.40;;
59442;SDS011;45247;47.466;19.004;2022-09-09T14:49:53;5.10;;;1.70;;
59442;SDS011;45247;47.466;19.004;2022-09-09T14:52:22;3.08;;;1.20;;
59442;SDS011;45247;47.466;19.004;2022-09-09T14:54:50;4.55;;;1.40;;
59442;SDS011;45247;47.466;19.004;2022-09-09T14:57:18;2.90;;;1.50;;
59442;SDS011;45247;47.466;19.004;2022-09-09T14:59:46;3.03;;;1.50;;
59442;SDS011;45247;47.466;19.004;2022-09-09T15:02:18;3.40;;;1.25;;
59442;SDS011;45247;47.466;19.004;2022-09-09T15:04:46;2.00;;;1.35;;
59442;SDS011;45247;47.466;19.004;2022-09-09T15:07:16;4.05;;;1.40;;
59442;SDS011;45247;47.466;19.004;2022-09-09T15:09:45;7.18;;;1.60;;
59442;SDS011;45247;47.466;19.004;2022-09-09T15:12:15;2.45;;;1.27;;
59442;SDS011;45247;47.466;19.004;2022-09-09T15:14:45;3.45;;;1.40;;
59442;SDS011;45247;47.466;19.004;2022-09-09T15:17:13;6.90;;;1.60;;
59442;SDS011;45247;47.466;19.004;2022-09-09T15:19:43;3.45;;;1.48;;
59442;SDS011;45247;47.466;19.004;2022-09-09T15:22:11;3.22;;;1.20;;